Time;durP1;ratioP1;P1;durP2;ratioP2;P2;SDS_P1;SDS_P2;PMS_P1;PMS_P2;Temp;Humidity;BMP_temperature;BMP_pressure;BME280_temperature;BME280_humidity;BME280_pressure;Samples;Min_cycle;Max_cycle;Signal;HPM_P1;HPM_P2
2022/07/07 00:00:28;;;;;;;15.40;8.98;;;16.30;99.90;;;;;;6131467;23;20462;-96
2022/07/07 00:02:54;;;;;;;14.38;8.07;;;16.40;99.90;;;;;;6133575;23;20016;-96
2022/07/07 00:05:20;;;;;;;14.05;7.30;;;16.30;99.90;;;;;;6129564;23;20016;-96
2022/07/07 00:07:46;;;;;;;13.88;6.43;;;16.30;99.90;;;;;;6130887;23;20012;-96
2022/07/07 00:10:12;;;;;;;16.67;7.72;;;16.30;99.90;;;;;;6130921;23;20017;-96
2022/07/07 00:12:38;;;;;;;17.75;7.35;;;16.30;99.90;;;;;;6133144;23;20028;-96
2022/07/07 00:15:05;;;;;;;17.13;7.65;;;16.30;99.90;;;;;;6135128;23;20021;-96
2022/07/07 00:17:31;;;;;;;14.93;8.02;;;16.40;99.90;;;;;;6134873;23;20464;-96
2022/07/07 00:19:57;;;;;;;13.90;7.03;;;16.30;99.90;;;;;;6132843;23;20021;-96
2022/07/07 00:22:23;;;;;;;13.35;6.50;;;16.30;99.90;;;;;;6132983;23;20021;-96
2022/07/07 00:24:49;;;;;;;15.20;6.80;;;16.30;99.90;;;;;;6135254;23;20459;-96
2022/07/07 00:27:15;;;;;;;13.10;6.47;;;16.30;99.90;;;;;;6134295;23;20009;-96
2022/07/07 00:29:43;;;;;;;13.32;5.80;;;16.40;99.90;;;;;;6133755;23;20049;-96
2022/07/07 00:32:10;;;;;;;17.83;6.45;;;16.30;99.90;;;;;;6133900;23;20036;-96
2022/07/07 00:34:36;;;;;;;18.65;6.25;;;16.30;99.90;;;;;;6131603;23;20023;-96
2022/07/07 00:37:02;;;;;;;10.88;5.78;;;16.30;99.90;;;;;;6157303;23;20453;-96
2022/07/07 00:39:28;;;;;;;14.13;6.07;;;16.30;99.90;;;;;;6131991;23;20032;-96
2022/07/07 00:41:56;;;;;;;12.35;6.00;;;16.30;99.90;;;;;;6132730;23;20013;-96
2022/07/07 00:44:22;;;;;;;14.48;5.93;;;16.30;99.90;;;;;;6136878;23;20028;-96
2022/07/07 00:46:54;;;;;;;17.15;5.82;;;16.30;99.90;;;;;;6141357;23;20013;-96
2022/07/07 00:49:22;;;;;;;14.95;6.10;;;16.20;99.90;;;;;;6149444;23;20032;-96
2022/07/07 00:51:55;;;;;;;13.85;6.20;;;16.30;99.90;;;;;;6149503;23;20065;-96
2022/07/07 00:54:35;;;;;;;14.15;6.05;;;16.30;99.90;;;;;;6131352;23;20024;-96
2022/07/07 00:57:11;;;;;;;10.43;5.30;;;16.20;99.90;;;;;;6125125;23;20017;-96
2022/07/07 00:59:49;;;;;;;9.57;3.55;;;16.20;99.90;;;;;;6146471;23;20052;-96
2022/07/07 01:02:18;;;;;;;9.35;3.13;;;16.20;99.90;;;;;;6141006;23;20021;-96
2022/07/07 01:04:50;;;;;;;7.63;2.60;;;16.20;99.90;;;;;;6139896;23;20021;-96
2022/07/07 01:07:21;;;;;;;9.75;2.58;;;16.10;99.90;;;;;;6136140;23;20024;-96
2022/07/07 01:09:47;;;;;;;8.05;2.80;;;16.10;99.90;;;;;;6134548;23;20096;-96
2022/07/07 01:12:12;;;;;;;9.60;2.40;;;16.10;99.90;;;;;;6135865;23;20048;-96
2022/07/07 01:14:39;;;;;;;11.60;3.20;;;16.20;99.90;;;;;;6134718;23;20031;-96
2022/07/07 01:17:05;;;;;;;12.18;3.40;;;16.10;99.90;;;;;;6132797;23;20017;-95
2022/07/07 01:19:31;;;;;;;11.10;2.90;;;16.00;99.90;;;;;;6135335;23;20067;-96
2022/07/07 01:22:00;;;;;;;11.65;2.80;;;16.10;99.90;;;;;;6133844;23;20357;-96
2022/07/07 01:24:28;;;;;;;12.85;2.95;;;16.00;99.90;;;;;;6134970;23;20052;-96
2022/07/07 01:27:07;;;;;;;10.00;3.45;;;16.00;99.90;;;;;;6134486;23;20024;-96
2022/07/07 01:29:36;;;;;;;9.85;3.58;;;16.00;99.90;;;;;;6133458;23;20017;-96
2022/07/07 01:32:04;;;;;;;10.05;3.00;;;16.00;99.90;;;;;;6131765;23;20469;-96
2022/07/07 01:34:30;;;;;;;10.55;3.92;;;16.00;99.90;;;;;;6131740;23;20048;-95
2022/07/07 01:36:56;;;;;;;6.47;2.63;;;16.00;99.90;;;;;;6132427;23;20053;-96
2022/07/07 01:39:25;;;;;;;9.90;2.90;;;15.90;99.90;;;;;;6134992;23;20031;-96
2022/07/07 01:41:51;;;;;;;11.00;3.13;;;16.00;99.90;;;;;;6138121;23;20013;-96
2022/07/07 01:44:19;;;;;;;11.50;3.33;;;15.90;99.90;;;;;;6140222;23;20040;-96
2022/07/07 01:47:15;;;;;;;13.05;3.15;;;16.00;99.90;;;;;;6169237;23;20079;-96
2022/07/07 01:49:49;;;;;;;10.80;3.17;;;16.00;99.90;;;;;;6197187;23;20056;-96
2022/07/07 01:52:17;;;;;;;12.00;4.00;;;16.00;99.90;;;;;;6172777;23;20079;-96
2022/07/07 01:54:44;;;;;;;16.17;3.80;;;16.00;99.90;;;;;;6138516;23;20323;-96
2022/07/07 01:57:10;;;;;;;9.93;3.53;;;15.90;99.90;;;;;;6140296;23;20035;-96
2022/07/07 01:59:37;;;;;;;12.80;3.83;;;16.00;99.90;;;;;;6139339;23;20023;-96
2022/07/07 02:02:03;;;;;;;11.35;3.72;;;16.00;99.90;;;;;;6135371;23;20021;-96
2022/07/07 02:04:29;;;;;;;15.48;4.07;;;16.00;99.90;;;;;;6134731;23;20801;-96
2022/07/07 02:06:55;;;;;;;16.83;3.47;;;16.00;99.90;;;;;;6131871;23;20017;-96
2022/07/07 02:09:20;;;;;;;9.82;3.42;;;16.00;99.90;;;;;;6157119;23;20017;-96
2022/07/07 02:11:46;;;;;;;17.20;4.20;;;16.00;99.90;;;;;;6134182;23;20024;-96
2022/07/07 02:14:50;;;;;;;12.88;3.85;;;16.00;99.90;;;;;;6142505;23;20025;-96
2022/07/07 02:24:48;;;;;;;11.70;3.25;;;15.90;99.90;;;;;;6107722;22;20273;-96
2022/07/07 02:27:24;;;;;;;11.60;3.22;;;15.90;99.90;;;;;;6083966;23;20022;-96
2022/07/07 02:29:50;;;;;;;11.27;2.78;;;15.90;99.90;;;;;;6076587;23;20117;-96
2022/07/07 02:32:21;;;;;;;11.10;3.13;;;16.00;99.90;;;;;;6076745;23;20029;-96
2022/07/07 02:34:48;;;;;;;18.15;3.28;;;16.00;99.90;;;;;;6072709;23;20026;-96
2022/07/07 02:37:14;;;;;;;14.55;3.38;;;15.80;99.90;;;;;;6071002;23;20025;-96
2022/07/07 02:39:40;;;;;;;13.50;3.78;;;15.90;99.90;;;;;;6072858;23;20077;-96
2022/07/07 02:42:06;;;;;;;16.50;3.95;;;16.00;99.90;;;;;;6072254;23;20022;-96
2022/07/07 02:44:31;;;;;;;13.40;3.35;;;16.00;99.90;;;;;;6070675;23;20021;-96
2022/07/07 02:46:57;;;;;;;11.80;3.47;;;16.00;99.90;;;;;;6070332;23;20025;-96
2022/07/07 02:49:23;;;;;;;14.75;3.08;;;16.00;99.90;;;;;;6069467;23;20026;-95
2022/07/07 02:51:49;;;;;;;13.45;3.10;;;16.10;99.90;;;;;;6068965;23;20014;-96
2022/07/07 02:54:14;;;;;;;13.93;2.70;;;16.00;99.90;;;;;;6068674;23;20021;-96
2022/07/07 02:56:40;;;;;;;16.15;2.78;;;16.00;99.90;;;;;;6069078;23;20014;-96
2022/07/07 02:59:06;;;;;;;15.15;3.22;;;16.00;99.90;;;;;;6069583;23;20021;-96
2022/07/07 03:01:32;;;;;;;19.67;2.90;;;16.00;99.90;;;;;;6068851;23;20033;-96
2022/07/07 03:03:57;;;;;;;15.15;2.50;;;16.00;99.90;;;;;;6046061;23;20018;-96
2022/07/07 03:06:23;;;;;;;16.65;3.38;;;15.90;99.90;;;;;;6068602;23;20014;-96
2022/07/07 03:08:49;;;;;;;15.57;3.03;;;16.00;99.90;;;;;;6068608;23;20053;-96
2022/07/07 03:11:14;;;;;;;19.95;2.80;;;15.90;99.90;;;;;;6069501;23;20018;-96
2022/07/07 03:13:40;;;;;;;13.98;2.88;;;15.90;99.90;;;;;;6069480;23;20018;-96
2022/07/07 03:16:06;;;;;;;15.40;2.95;;;16.00;99.90;;;;;;6070920;23;20108;-96
2022/07/07 03:18:40;;;;;;;24.23;3.17;;;15.90;99.90;;;;;;6090401;23;20018;-96
2022/07/07 03:21:16;;;;;;;14.10;2.85;;;15.70;99.90;;;;;;6073662;23;20022;-96
2022/07/07 03:24:37;;;;;;;13.32;2.88;;;15.90;99.90;;;;;;6080357;23;20428;-96
2022/07/07 03:28:27;;;;;;;15.43;3.35;;;16.00;99.90;;;;;;6086729;22;20026;-96
2022/07/07 03:31:00;;;;;;;14.95;2.45;;;15.90;99.90;;;;;;6102361;23;20056;-96
2022/07/07 03:33:32;;;;;;;11.60;1.60;;;15.80;99.90;;;;;;6061337;23;20367;-96
2022/07/07 03:36:04;;;;;;;11.05;1.77;;;15.80;99.90;;;;;;6077193;23;20029;-96
2022/07/07 03:38:33;;;;;;;20.48;1.77;;;15.80;99.90;;;;;;6076253;23;20104;-96
2022/07/07 03:41:02;;;;;;;12.20;1.48;;;15.70;99.90;;;;;;6094635;23;20018;-96
2022/07/07 03:43:27;;;;;;;15.45;2.40;;;15.60;99.90;;;;;;6096762;23;20542;-96
2022/07/07 03:45:53;;;;;;;13.93;1.50;;;15.60;99.90;;;;;;6095811;23;20022;-96
2022/07/07 03:48:19;;;;;;;24.92;2.83;;;15.60;99.90;;;;;;6072104;23;20026;-96
2022/07/07 03:50:48;;;;;;;17.70;1.85;;;15.50;99.90;;;;;;6093582;23;20025;-96
2022/07/07 03:53:14;;;;;;;16.85;1.98;;;15.60;99.90;;;;;;6075830;23;20018;-96
2022/07/07 03:55:52;;;;;;;10.80;2.08;;;15.50;99.90;;;;;;6100010;23;20056;-96
2022/07/07 03:58:29;;;;;;;10.05;1.60;;;15.50;99.90;;;;;;6080708;23;20028;-96
2022/07/07 04:01:00;;;;;;;13.30;1.40;;;15.50;99.90;;;;;;6071830;23;20048;-96
2022/07/07 04:03:29;;;;;;;7.78;1.02;;;15.50;99.90;;;;;;6111311;23;20018;-96
2022/07/07 04:05:59;;;;;;;11.52;1.15;;;15.40;99.90;;;;;;6098489;23;20014;-96
2022/07/07 04:08:25;;;;;;;7.85;1.13;;;15.50;99.90;;;;;;6049084;23;20407;-96
2022/07/07 04:10:51;;;;;;;14.13;1.95;;;15.50;99.90;;;;;;6096939;23;20022;-96
2022/07/07 04:13:17;;;;;;;12.35;1.70;;;15.80;99.90;;;;;;6095581;23;20099;-96
2022/07/07 04:15:45;;;;;;;12.65;1.88;;;15.40;99.90;;;;;;6074347;23;20055;-96
2022/07/07 04:18:21;;;;;;;13.93;1.75;;;15.50;99.90;;;;;;6080751;23;20028;-96
2022/07/07 04:21:01;;;;;;;13.70;1.77;;;15.40;99.90;;;;;;6077682;23;20045;-96
2022/07/07 04:23:27;;;;;;;14.40;2.05;;;15.30;99.90;;;;;;6079215;23;20058;-96
2022/07/07 04:25:58;;;;;;;8.90;1.67;;;15.30;99.90;;;;;;6102605;23;20389;-96
2022/07/07 04:28:34;;;;;;;14.13;1.73;;;15.20;99.90;;;;;;6120355;23;20026;-96
2022/07/07 04:31:00;;;;;;;13.55;1.98;;;15.20;99.90;;;;;;6094864;23;20029;-96
2022/07/07 04:33:26;;;;;;;15.90;2.17;;;15.20;99.90;;;;;;6092788;23;20021;-96
2022/07/07 04:36:03;;;;;;;16.05;1.80;;;15.20;99.90;;;;;;6093028;23;20446;-96
2022/07/07 04:39:06;;;;;;;12.45;2.10;;;15.20;99.90;;;;;;6111800;23;20088;-96
2022/07/07 04:41:39;;;;;;;10.77;1.73;;;15.30;99.90;;;;;;6090046;23;20033;-96
2022/07/07 04:44:06;;;;;;;10.40;1.85;;;15.20;99.90;;;;;;6078852;23;20018;-96
2022/07/07 04:46:35;;;;;;;9.90;1.52;;;15.00;99.90;;;;;;6080036;23;20048;-96
2022/07/07 04:49:01;;;;;;;12.85;1.60;;;15.20;99.90;;;;;;6074563;23;20026;-96
2022/07/07 04:51:28;;;;;;;11.52;1.70;;;15.20;99.90;;;;;;6070306;23;20029;-96
2022/07/07 04:53:53;;;;;;;11.80;1.58;;;15.20;99.90;;;;;;6096577;23;20061;-96
2022/07/07 04:56:19;;;;;;;9.32;1.60;;;15.20;99.90;;;;;;6101698;23;20028;-96
2022/07/07 04:58:45;;;;;;;13.23;1.60;;;15.20;99.90;;;;;;6093730;23;20077;-96
2022/07/07 05:01:11;;;;;;;8.93;1.52;;;15.20;99.90;;;;;;6096562;23;20338;-96
2022/07/07 05:03:37;;;;;;;18.65;2.00;;;15.30;99.90;;;;;;6093785;23;20061;-96
2022/07/07 05:06:03;;;;;;;12.23;2.25;;;15.30;99.90;;;;;;6071821;23;20010;-96
2022/07/07 05:08:30;;;;;;;15.65;2.40;;;15.30;99.90;;;;;;6075874;23;20434;-96
2022/07/07 05:10:56;;;;;;;13.80;2.65;;;15.40;99.90;;;;;;6094797;23;20093;-96
2022/07/07 05:13:22;;;;;;;16.40;2.28;;;15.40;99.90;;;;;;6069228;23;20104;-96
2022/07/07 05:15:48;;;;;;;16.90;2.67;;;15.50;99.90;;;;;;6092154;23;20056;-96
2022/07/07 05:18:15;;;;;;;13.95;2.05;;;15.50;99.90;;;;;;6093666;23;20025;-96
2022/07/07 05:20:41;;;;;;;13.80;2.40;;;15.40;99.90;;;;;;6068721;23;20042;-96
2022/07/07 05:23:07;;;;;;;13.30;2.05;;;15.40;99.90;;;;;;6102147;23;20117;-96
2022/07/07 05:25:32;;;;;;;14.07;2.42;;;15.40;99.90;;;;;;6094571;23;20092;-96
2022/07/07 05:27:58;;;;;;;18.00;2.05;;;15.40;99.90;;;;;;6094060;23;20014;-96
2022/07/07 05:30:24;;;;;;;7.57;1.67;;;15.50;99.90;;;;;;6092705;23;20018;-96
2022/07/07 05:32:50;;;;;;;17.50;2.58;;;15.50;99.90;;;;;;6097010;23;20088;-96
2022/07/07 05:35:16;;;;;;;16.75;2.05;;;15.50;99.90;;;;;;6096561;23;20018;-96
2022/07/07 05:37:42;;;;;;;19.05;2.50;;;15.50;99.90;;;;;;6093224;23;20083;-96
2022/07/07 05:40:08;;;;;;;13.93;2.85;;;15.50;99.90;;;;;;6092949;23;20125;-96
2022/07/07 05:42:34;;;;;;;14.82;2.30;;;15.40;99.90;;;;;;6069876;23;20018;-95
2022/07/07 05:45:00;;;;;;;13.98;2.00;;;15.40;99.90;;;;;;6112660;23;20033;-94
2022/07/07 05:47:25;;;;;;;14.38;2.40;;;15.40;99.90;;;;;;6116260;23;20022;-95
2022/07/07 05:49:51;;;;;;;15.43;2.20;;;15.40;99.90;;;;;;6116570;23;20090;-95
2022/07/07 05:52:17;;;;;;;16.52;2.28;;;15.50;99.90;;;;;;6114699;23;20025;-95
2022/07/07 05:54:43;;;;;;;17.00;2.28;;;15.50;99.90;;;;;;6118738;23;20029;-95
2022/07/07 05:57:09;;;;;;;12.48;1.95;;;15.50;99.90;;;;;;6106025;23;20010;-96
2022/07/07 05:59:35;;;;;;;18.00;2.50;;;15.70;99.90;;;;;;6117484;23;20034;-96
2022/07/07 06:02:01;;;;;;;13.60;2.20;;;15.70;99.90;;;;;;6094798;23;20036;-95
2022/07/07 06:04:26;;;;;;;13.57;2.22;;;15.70;99.90;;;;;;6117834;23;20006;-96
2022/07/07 06:06:52;;;;;;;15.18;2.42;;;15.80;99.90;;;;;;6118875;23;20009;-95
2022/07/07 06:09:18;;;;;;;10.60;1.73;;;15.70;99.90;;;;;;6093937;23;20010;-95
2022/07/07 06:11:44;;;;;;;17.48;2.33;;;15.80;99.90;;;;;;6117122;23;20032;-94
2022/07/07 06:14:10;;;;;;;11.13;1.77;;;15.80;99.90;;;;;;6102595;23;20022;-95
2022/07/07 06:16:42;;;;;;;11.30;1.65;;;15.80;99.90;;;;;;6096372;23;20136;-95
2022/07/07 06:19:09;;;;;;;15.00;2.47;;;15.80;99.90;;;;;;6095944;23;20056;-96
2022/07/07 06:21:37;;;;;;;13.25;1.95;;;15.90;99.90;;;;;;6071746;23;20025;-96
2022/07/07 06:24:03;;;;;;;8.52;1.20;;;15.90;99.90;;;;;;6071130;23;20021;-95
2022/07/07 06:26:29;;;;;;;12.07;2.13;;;16.00;99.90;;;;;;6069861;23;20021;-96
2022/07/07 06:28:55;;;;;;;10.05;2.30;;;16.10;99.90;;;;;;6095289;23;20018;-96
2022/07/07 06:31:21;;;;;;;18.60;2.17;;;16.20;99.90;;;;;;6092370;23;20013;-96
2022/07/07 06:33:47;;;;;;;16.60;1.92;;;16.20;99.90;;;;;;6091821;23;20029;-95
2022/07/07 06:36:12;;;;;;;10.90;1.90;;;16.30;99.90;;;;;;6091413;23;20014;-96
2022/07/07 06:38:38;;;;;;;15.90;1.60;;;16.40;99.90;;;;;;6091900;23;20532;-96
2022/07/07 06:41:04;;;;;;;12.07;1.77;;;16.40;99.90;;;;;;6091792;23;20014;-95
2022/07/07 06:43:29;;;;;;;11.40;1.48;;;16.20;99.90;;;;;;6092261;23;20086;-95
2022/07/07 06:45:55;;;;;;;16.25;1.75;;;16.10;99.90;;;;;;6092909;23;20018;-96
2022/07/07 06:48:21;;;;;;;11.38;2.05;;;16.00;99.90;;;;;;6093254;23;20126;-95
2022/07/07 06:50:47;;;;;;;12.35;1.83;;;16.00;99.90;;;;;;6093346;23;20204;-96
2022/07/07 06:53:12;;;;;;;11.57;1.67;;;16.10;99.90;;;;;;6093159;23;20101;-96
2022/07/07 06:55:38;;;;;;;17.60;1.88;;;16.30;99.90;;;;;;6094550;23;20014;-96
2022/07/07 06:58:04;;;;;;;8.20;1.25;;;16.50;99.90;;;;;;6093471;23;20514;-96
2022/07/07 07:00:30;;;;;;;12.98;1.50;;;16.60;99.90;;;;;;6091963;23;20109;-96
2022/07/07 07:02:56;;;;;;;13.77;1.23;;;16.40;99.90;;;;;;6093088;23;20118;-96
2022/07/07 07:05:22;;;;;;;8.93;1.13;;;16.60;99.90;;;;;;6067163;23;20044;-96
2022/07/07 07:07:48;;;;;;;6.10;0.80;;;16.70;99.90;;;;;;6069740;23;20053;-96
2022/07/07 07:10:14;;;;;;;12.00;1.38;;;16.90;99.90;;;;;;6104470;23;20084;-96
2022/07/07 07:12:40;;;;;;;8.85;1.70;;;16.90;99.90;;;;;;6092558;23;20064;-96
2022/07/07 07:15:07;;;;;;;10.55;1.10;;;16.80;99.90;;;;;;6092427;23;20018;-96
2022/07/07 07:17:38;;;;;;;7.68;0.73;;;16.60;99.90;;;;;;6072417;23;20021;-96
2022/07/07 07:20:07;;;;;;;8.30;1.10;;;16.40;99.90;;;;;;6071110;23;20018;-95
2022/07/07 07:22:37;;;;;;;7.85;1.08;;;16.40;99.90;;;;;;6071685;23;20018;-96
2022/07/07 07:25:03;;;;;;;4.57;0.70;;;16.40;99.90;;;;;;6070123;23;20014;-96
2022/07/07 07:27:29;;;;;;;5.95;0.88;;;16.40;99.90;;;;;;6071191;23;20106;-96
2022/07/07 07:29:55;;;;;;;5.88;0.65;;;16.50;99.90;;;;;;6098086;23;20018;-92
2022/07/07 07:32:20;;;;;;;4.47;0.60;;;16.80;99.90;;;;;;6095682;23;20439;-95
2022/07/07 07:34:46;;;;;;;7.00;0.90;;;16.90;99.90;;;;;;6093944;23;20025;-96
2022/07/07 07:37:15;;;;;;;4.95;0.57;;;17.00;99.90;;;;;;6093444;23;20022;-96
2022/07/07 07:39:43;;;;;;;8.18;0.80;;;16.90;99.90;;;;;;6100576;23;20409;-96
2022/07/07 07:42:14;;;;;;;6.00;0.80;;;16.80;99.90;;;;;;6072279;23;20053;-96
2022/07/07 07:47:28;;;;;;;4.55;0.50;;;16.60;99.90;;;;;;6102086;23;20022;-96
2022/07/07 07:49:57;;;;;;;;;;;16.50;99.90;;;;;;6083848;23;20025;-96
2022/07/07 07:52:23;;;;;;;3.78;0.60;;;16.40;99.90;;;;;;6076893;23;19921;-96
2022/07/07 07:54:49;;;;;;;6.07;0.75;;;16.50;99.90;;;;;;6097001;23;20342;-96
2022/07/07 07:57:55;;;;;;;6.45;0.70;;;16.70;99.90;;;;;;6115167;22;20039;-96
2022/07/07 08:00:22;;;;;;;6.72;0.75;;;16.90;99.90;;;;;;6019333;23;20045;-96
2022/07/07 08:02:48;;;;;;;5.65;1.00;;;17.30;99.90;;;;;;6040112;23;20064;-96
2022/07/07 08:05:16;;;;;;;8.00;0.95;;;17.50;99.90;;;;;;6063486;23;20038;-96
2022/07/07 08:07:42;;;;;;;6.95;0.93;;;17.50;99.90;;;;;;6064270;23;20052;-96
2022/07/07 08:10:13;;;;;;;7.40;1.00;;;17.50;99.90;;;;;;6066669;23;20073;-95
2022/07/07 08:12:40;;;;;;;8.07;1.15;;;17.50;99.90;;;;;;6040759;23;20065;-96
2022/07/07 08:15:06;;;;;;;7.53;0.82;;;17.40;99.90;;;;;;6064046;23;20027;-96
2022/07/07 08:17:32;;;;;;;7.97;1.73;;;17.40;99.90;;;;;;6063987;23;20112;-95
2022/07/07 08:19:58;;;;;;;7.15;0.82;;;17.50;99.90;;;;;;6039211;23;20022;-95
2022/07/07 08:22:24;;;;;;;9.52;1.02;;;17.70;99.90;;;;;;6064585;23;20065;-95
2022/07/07 08:24:50;;;;;;;8.10;0.90;;;18.00;99.90;;;;;;6040156;23;20025;-95
2022/07/07 08:27:16;;;;;;;5.68;0.82;;;18.40;99.90;;;;;;6041221;23;20022;-95
2022/07/07 08:29:42;;;;;;;11.18;1.10;;;18.60;99.90;;;;;;6040807;23;20019;-94
2022/07/07 08:32:10;;;;;;;5.90;1.23;;;18.50;99.90;;;;;;6063054;23;20070;-96
2022/07/07 08:34:37;;;;;;;9.63;1.42;;;18.20;99.90;;;;;;6043332;23;20398;-95
2022/07/07 08:37:03;;;;;;;10.32;1.80;;;17.90;99.90;;;;;;6065498;23;20097;-95
2022/07/07 08:39:29;;;;;;;11.52;1.60;;;17.70;99.90;;;;;;6064924;23;20347;-96
2022/07/07 08:41:55;;;;;;;6.28;1.70;;;17.70;99.90;;;;;;6040396;23;20022;-95
2022/07/07 08:44:21;;;;;;;11.27;2.08;;;17.60;99.90;;;;;;6039612;23;20481;-96
2022/07/07 08:46:47;;;;;;;11.77;1.60;;;17.70;99.90;;;;;;6039916;23;20018;-94
2022/07/07 08:49:13;;;;;;;9.80;1.95;;;17.70;99.90;;;;;;6041057;23;20026;-95
2022/07/07 08:51:41;;;;;;;7.65;1.73;;;17.70;99.90;;;;;;6039626;23;20022;-95
2022/07/07 08:54:10;;;;;;;10.52;1.63;;;17.70;99.90;;;;;;6039794;23;20015;-96
2022/07/07 08:56:38;;;;;;;8.00;1.70;;;17.80;99.90;;;;;;6064957;23;20026;-95
2022/07/07 08:59:06;;;;;;;8.65;1.83;;;18.10;99.90;;;;;;6053770;23;20049;-96
2022/07/07 09:01:32;;;;;;;10.88;1.85;;;18.10;99.90;;;;;;6068325;23;20604;-94
2022/07/07 09:03:59;;;;;;;9.70;2.38;;;18.20;99.90;;;;;;6071235;23;20025;-96
2022/07/07 09:06:25;;;;;;;9.50;1.85;;;18.00;99.90;;;;;;6067918;23;20091;-95
2022/07/07 09:08:51;;;;;;;7.32;1.35;;;18.00;99.90;;;;;;6070005;23;20087;-94
2022/07/07 09:11:25;;;;;;;8.05;1.52;;;18.10;99.90;;;;;;6068700;23;20014;-94
2022/07/07 09:13:51;;;;;;;5.72;1.10;;;18.10;99.90;;;;;;6068617;23;20088;-95
2022/07/07 09:16:17;;;;;;;8.32;1.15;;;18.00;99.90;;;;;;6070334;23;20018;-95
2022/07/07 09:18:45;;;;;;;4.47;0.70;;;17.90;99.90;;;;;;6069540;23;20063;-96
2022/07/07 09:21:29;;;;;;;7.18;0.90;;;17.80;99.90;;;;;;6069474;23;20032;-95
2022/07/07 09:23:57;;;;;;;7.72;0.90;;;17.60;99.90;;;;;;6070637;23;20024;-95
2022/07/07 09:26:36;;;;;;;5.78;1.08;;;17.50;99.90;;;;;;6071112;23;20052;-95
2022/07/07 09:29:02;;;;;;;8.43;1.30;;;17.60;99.90;;;;;;6072117;23;20041;-96
2022/07/07 09:31:51;;;;;;;8.23;1.50;;;17.80;99.90;;;;;;6070647;23;20565;-96
2022/07/07 09:34:18;;;;;;;14.05;1.80;;;18.10;99.90;;;;;;6069114;23;20026;-96
2022/07/07 09:39:40;;;;;;;13.98;2.10;;;18.10;99.90;;;;;;6093176;23;20033;-96
2022/07/07 09:42:29;;;;;;;8.65;1.20;;;17.90;99.90;;;;;;6068211;23;20040;-96
2022/07/07 09:45:01;;;;;;;10.98;1.67;;;17.70;99.90;;;;;;6069315;23;20010;-96
2022/07/07 09:47:28;;;;;;;9.05;1.42;;;17.50;99.90;;;;;;6068580;23;20025;-94
2022/07/07 09:50:00;;;;;;;7.25;1.05;;;17.50;99.90;;;;;;6068626;23;20017;-95
2022/07/07 09:52:26;;;;;;;8.30;1.13;;;17.50;99.90;;;;;;6069731;23;20021;-94
2022/07/07 09:54:52;;;;;;;13.68;1.40;;;17.60;99.90;;;;;;6068844;23;20044;-95
2022/07/07 09:57:19;;;;;;;7.05;1.58;;;17.70;99.90;;;;;;6068294;23;20517;-96
2022/07/07 09:59:45;;;;;;;16.17;1.20;;;17.80;99.90;;;;;;6068832;23;20105;-94
2022/07/07 10:02:25;;;;;;;7.93;0.95;;;17.80;99.90;;;;;;6069630;23;20346;-95
2022/07/07 10:04:53;;;;;;;8.15;1.25;;;18.10;99.90;;;;;;6070560;23;20212;-96
2022/07/07 10:07:22;;;;;;;8.90;1.30;;;18.10;99.90;;;;;;6068602;23;20049;-94
2022/07/07 10:10:03;;;;;;;10.98;1.08;;;18.10;99.90;;;;;;6068170;23;20018;-96
2022/07/07 10:12:29;;;;;;;8.05;1.30;;;17.80;99.90;;;;;;6068190;23;20018;-95
2022/07/07 10:15:13;;;;;;;18.17;2.83;;;17.50;99.90;;;;;;6070177;23;20018;-95
2022/07/07 10:17:41;;;;;;;9.48;1.70;;;17.40;99.90;;;;;;6067946;23;20576;-96
2022/07/07 10:20:07;;;;;;;13.23;1.90;;;17.30;99.90;;;;;;6068323;23;20021;-95
2022/07/07 10:22:35;;;;;;;13.50;2.03;;;17.10;99.90;;;;;;6070676;23;20028;-94
2022/07/07 10:25:06;;;;;;;12.52;1.50;;;17.00;99.90;;;;;;6070546;23;20018;-95
2022/07/07 10:27:33;;;;;;;11.82;1.90;;;16.70;99.90;;;;;;6069595;23;20010;-95
2022/07/07 10:30:01;;;;;;;20.08;2.17;;;16.70;99.90;;;;;;6069048;23;20018;-95
2022/07/07 10:32:39;;;;;;;17.50;2.58;;;16.70;99.90;;;;;;6067534;23;20014;-95
2022/07/07 10:35:08;;;;;;;18.45;2.55;;;16.90;99.90;;;;;;6067631;23;20022;-96
2022/07/07 10:37:47;;;;;;;24.63;3.13;;;17.00;99.90;;;;;;6072633;23;20448;-94
2022/07/07 10:40:27;;;;;;;23.40;3.67;;;17.00;99.90;;;;;;6067577;23;20026;-95
2022/07/07 10:43:38;;;;;;;17.23;2.88;;;16.90;99.90;;;;;;6072013;23;20006;-94
2022/07/07 10:46:08;;;;;;;19.00;2.80;;;16.80;99.90;;;;;;6067477;23;20033;-95
2022/07/07 10:48:42;;;;;;;26.10;2.50;;;16.90;99.90;;;;;;6071085;23;20025;-94
2022/07/07 10:51:16;;;;;;;17.08;2.95;;;17.00;99.90;;;;;;6067598;23;20022;-94
2022/07/07 10:53:57;;;;;;;17.40;2.17;;;17.00;99.90;;;;;;6067409;23;20024;-95
2022/07/07 10:56:23;;;;;;;14.13;2.67;;;17.10;99.90;;;;;;6067815;23;20022;-94
2022/07/07 10:58:55;;;;;;;12.32;2.30;;;17.30;99.90;;;;;;6068619;23;20088;-94
2022/07/07 11:01:23;;;;;;;19.70;2.63;;;17.40;99.90;;;;;;6067816;23;20061;-96
2022/07/07 11:03:49;;;;;;;18.85;2.80;;;17.60;99.90;;;;;;6072498;23;20018;-95
2022/07/07 11:06:15;;;;;;;21.85;2.97;;;17.70;99.90;;;;;;6069951;23;20018;-95
2022/07/07 11:08:41;;;;;;;14.40;2.40;;;17.70;99.90;;;;;;6069136;23;20472;-94
2022/07/07 11:11:07;;;;;;;18.80;2.40;;;17.70;99.90;;;;;;6069386;23;20014;-93
2022/07/07 11:13:42;;;;;;;18.83;2.28;;;17.60;99.90;;;;;;6069283;23;20021;-94
2022/07/07 11:16:16;;;;;;;16.98;3.08;;;17.50;99.90;;;;;;6068689;23;20076;-94
2022/07/07 11:18:46;;;;;;;18.67;2.97;;;17.40;99.90;;;;;;6068449;23;20045;-95
2022/07/07 11:21:12;;;;;;;21.05;2.97;;;17.30;99.90;;;;;;6066752;23;20056;-95
2022/07/07 11:23:47;;;;;;;21.48;2.92;;;17.30;99.90;;;;;;6070084;23;20018;-94
2022/07/07 11:26:15;;;;;;;15.25;2.78;;;17.40;99.90;;;;;;6068285;23;20018;-94
2022/07/07 11:28:41;;;;;;;22.02;2.85;;;17.40;99.90;;;;;;6067041;23;20439;-94
2022/07/07 11:31:08;;;;;;;11.38;2.15;;;17.60;99.90;;;;;;6067987;23;20022;-94
2022/07/07 11:33:35;;;;;;;13.88;1.83;;;17.70;99.90;;;;;;6067515;23;20105;-95
2022/07/07 11:36:10;;;;;;;12.80;1.67;;;17.90;99.90;;;;;;6067364;23;20381;-94
2022/07/07 11:38:36;;;;;;;12.88;1.58;;;18.10;99.90;;;;;;6067726;23;20089;-96
2022/07/07 11:41:01;;;;;;;13.15;2.15;;;18.10;99.90;;;;;;6069596;23;20049;-94
2022/07/07 11:43:27;;;;;;;7.78;1.52;;;18.30;99.90;;;;;;6069791;23;20018;-95
2022/07/07 11:45:54;;;;;;;12.65;1.55;;;18.50;99.90;;;;;;6068307;23;20048;-95
2022/07/07 11:48:21;;;;;;;11.40;1.92;;;18.70;99.90;;;;;;6071830;23;20109;-95
2022/07/07 11:50:49;;;;;;;10.30;1.90;;;18.90;99.90;;;;;;6070753;23;20454;-95
2022/07/07 11:53:14;;;;;;;8.32;1.77;;;19.00;99.90;;;;;;6069684;23;20025;-96
2022/07/07 11:55:42;;;;;;;13.30;1.95;;;19.10;99.90;;;;;;6066884;23;20018;-95
2022/07/07 11:58:09;;;;;;;18.88;2.20;;;19.00;99.90;;;;;;6067983;22;20025;-94
2022/07/07 12:00:37;;;;;;;11.68;1.80;;;18.80;99.90;;;;;;6071194;23;20040;-95
2022/07/07 12:03:04;;;;;;;9.80;2.22;;;18.90;99.90;;;;;;6067418;23;20018;-94
2022/07/07 12:05:33;;;;;;;15.35;2.10;;;19.00;99.90;;;;;;6068757;23;20097;-95
2022/07/07 12:08:03;;;;;;;11.05;2.35;;;19.00;99.90;;;;;;6068837;23;20097;-95
2022/07/07 12:10:32;;;;;;;13.88;1.98;;;18.70;99.90;;;;;;6068236;23;20046;-95
2022/07/07 12:13:00;;;;;;;23.63;2.65;;;18.40;99.90;;;;;;6069603;23;20096;-94
2022/07/07 12:15:30;;;;;;;16.13;2.58;;;18.20;99.90;;;;;;6069701;23;20056;-94
2022/07/07 12:17:57;;;;;;;15.48;2.00;;;18.30;99.90;;;;;;6068953;23;20014;-94
2022/07/07 12:20:24;;;;;;;20.63;2.65;;;18.20;99.90;;;;;;6068868;23;20018;-95
2022/07/07 12:22:53;;;;;;;15.93;2.42;;;18.40;99.90;;;;;;6069856;23;20439;-96
2022/07/07 12:25:20;;;;;;;14.57;2.42;;;18.60;99.90;;;;;;6071940;23;20097;-96
2022/07/07 12:27:57;;;;;;;18.02;2.35;;;18.70;99.90;;;;;;6081383;23;20023;-95
2022/07/07 12:30:26;;;;;;;9.30;1.77;;;18.80;99.90;;;;;;6068520;23;20017;-94
2022/07/07 12:32:52;;;;;;;11.55;1.88;;;18.80;99.90;;;;;;6069532;23;20030;-95
2022/07/07 12:35:37;;;;;;;20.50;2.55;;;18.70;99.90;;;;;;6069277;23;20083;-95
2022/07/07 12:38:05;;;;;;;16.17;3.00;;;18.50;99.90;;;;;;6069708;23;20029;-94
2022/07/07 12:40:33;;;;;;;23.48;2.83;;;18.30;99.90;;;;;;6068952;23;20049;-94
2022/07/07 12:43:05;;;;;;;16.25;2.85;;;18.10;99.90;;;;;;6071480;23;20022;-96
2022/07/07 12:45:31;;;;;;;14.27;2.30;;;18.00;99.90;;;;;;6068236;23;20045;-95
2022/07/07 12:47:57;;;;;;;12.25;2.05;;;18.00;99.90;;;;;;6069954;23;20076;-95
2022/07/07 12:50:24;;;;;;;12.75;2.72;;;17.90;99.90;;;;;;6068397;23;20452;-96
2022/07/07 12:52:55;;;;;;;13.00;2.90;;;17.90;99.90;;;;;;6068830;23;20022;-96
2022/07/07 12:55:21;;;;;;;15.23;2.75;;;17.60;99.90;;;;;;6072599;23;20025;-95
2022/07/07 12:57:47;;;;;;;15.45;2.72;;;17.40;99.90;;;;;;6070802;23;20033;-96
2022/07/07 13:00:25;;;;;;;16.00;2.85;;;17.20;99.90;;;;;;6069053;23;20028;-96
2022/07/07 13:02:52;;;;;;;18.20;2.67;;;17.00;99.90;;;;;;6069975;23;20018;-96